createdAt,value
2018-05-05T00:01:31.268Z,16.71
2018-05-05T00:03:58.826Z,16.66
2018-05-05T00:06:26.407Z,16.63
2018-05-05T00:08:53.973Z,16.66
2018-05-05T00:11:21.505Z,16.62
2018-05-05T00:13:49.063Z,16.77
2018-05-05T00:16:16.760Z,16.71
2018-05-05T00:18:44.276Z,16.75
2018-05-05T00:21:11.801Z,16.72
2018-05-05T00:23:40.537Z,16.68
2018-05-05T00:26:08.109Z,16.66
2018-05-05T00:28:35.659Z,16.53
2018-05-05T00:31:03.233Z,16.56
2018-05-05T00:33:30.769Z,16.55
2018-05-05T00:35:58.328Z,16.59
2018-05-05T00:38:26.096Z,16.50
2018-05-05T00:40:53.727Z,16.45
2018-05-05T00:43:21.585Z,16.55
2018-05-05T00:45:49.280Z,16.55
2018-05-05T00:48:16.813Z,16.47
2018-05-05T00:50:44.328Z,16.45
2018-05-05T00:53:12.168Z,16.38
2018-05-05T00:55:39.742Z,16.40
2018-05-05T00:58:07.253Z,16.30
2018-05-05T01:00:35.032Z,16.28
2018-05-05T01:03:02.547Z,16.18
2018-05-05T01:05:30.101Z,16.23
2018-05-05T01:07:57.708Z,16.00
2018-05-05T01:10:25.224Z,15.93
2018-05-05T01:12:52.763Z,15.91
2018-05-05T01:15:20.505Z,15.97
2018-05-05T01:17:48.082Z,15.91
2018-05-05T01:20:15.638Z,15.85
2018-05-05T01:22:43.511Z,15.80
2018-05-05T01:28:09.946Z,15.68
2018-05-05T01:30:37.535Z,15.57
2018-05-05T01:33:05.138Z,15.61
2018-05-05T01:35:33.108Z,15.53
2018-05-05T01:38:00.625Z,15.41
2018-05-05T01:40:28.141Z,15.50
2018-05-05T01:42:55.697Z,15.32
2018-05-05T01:45:23.288Z,15.35
2018-05-05T01:47:50.828Z,15.20
2018-05-05T01:50:18.520Z,15.27
2018-05-05T01:52:46.035Z,15.25
2018-05-05T01:55:13.552Z,15.21
2018-05-05T01:57:41.168Z,15.05
2018-05-05T02:00:08.748Z,15.00
2018-05-05T02:02:36.281Z,15.14
2018-05-05T02:05:04.051Z,15.13
2018-05-05T02:07:31.622Z,14.99
2018-05-05T02:09:59.169Z,14.90
2018-05-05T02:12:28.052Z,14.87
2018-05-05T02:14:55.575Z,14.88
2018-05-05T02:17:23.123Z,14.87
2018-05-05T02:19:50.740Z,14.81
2018-05-05T02:22:18.292Z,14.80
2018-05-05T02:24:45.856Z,14.83
2018-05-05T02:27:13.438Z,14.83
2018-05-05T02:29:41.031Z,14.86
2018-05-05T02:32:08.593Z,14.81
2018-05-05T02:34:36.297Z,14.75
2018-05-05T02:37:03.869Z,14.72
2018-05-05T02:39:31.417Z,14.68
2018-05-05T02:41:58.970Z,14.64
2018-05-05T02:44:26.493Z,14.63
2018-05-05T02:46:54.051Z,14.54
2018-05-05T02:49:21.755Z,14.50
2018-05-05T02:51:53.321Z,14.45
2018-05-05T02:54:20.882Z,14.48
2018-05-05T02:56:48.446Z,14.45
2018-05-05T02:59:16.050Z,14.44
2018-05-05T03:01:43.871Z,14.43
2018-05-05T03:04:11.421Z,14.42
2018-05-05T03:06:38.977Z,14.36
2018-05-05T03:09:06.745Z,14.31
2018-05-05T03:11:34.368Z,14.25
2018-05-05T03:14:01.812Z,14.20
2018-05-05T03:16:29.438Z,14.27
2018-05-05T03:18:56.973Z,14.22
2018-05-05T03:21:24.539Z,14.19
2018-05-05T03:23:52.093Z,14.14
2018-05-05T03:26:19.703Z,14.13
2018-05-05T03:28:47.250Z,14.14
2018-05-05T03:31:15.089Z,14.08
2018-05-05T03:33:42.639Z,14.07
2018-05-05T03:36:10.301Z,14.05
2018-05-05T03:38:38.065Z,14.09
2018-05-05T03:41:05.727Z,14.03
2018-05-05T03:43:33.289Z,14.07
2018-05-05T03:46:01.137Z,14.02
2018-05-05T03:48:28.712Z,14.04
2018-05-05T03:50:56.477Z,13.98
2018-05-05T03:53:24.654Z,13.90
2018-05-05T03:55:52.181Z,13.90
2018-05-05T03:58:19.698Z,13.89
2018-05-05T04:00:59.392Z,13.88
2018-05-05T04:03:38.640Z,13.75
2018-05-05T04:06:06.209Z,13.74
2018-05-05T04:08:33.721Z,13.79
2018-05-05T04:11:01.246Z,13.86
2018-05-05T04:13:28.804Z,13.73
2018-05-05T04:15:56.319Z,13.70
2018-05-05T04:18:23.845Z,13.80
2018-05-05T04:20:51.852Z,13.81
2018-05-05T04:23:19.376Z,13.79
2018-05-05T04:25:46.888Z,13.85
2018-05-05T04:28:14.503Z,13.82
2018-05-05T04:30:42.019Z,13.81
2018-05-05T04:33:09.544Z,13.83
2018-05-05T04:35:37.117Z,13.87
2018-05-05T04:38:04.640Z,13.84
2018-05-05T04:40:32.748Z,13.94
2018-05-05T04:43:00.639Z,14.04
2018-05-05T04:45:28.156Z,13.87
2018-05-05T04:47:55.684Z,14.06
2018-05-05T04:50:23.237Z,14.15
2018-05-05T04:52:50.752Z,14.15
2018-05-05T04:55:18.339Z,14.17
2018-05-05T04:57:46.048Z,14.08
2018-05-05T05:00:13.572Z,14.31
2018-05-05T05:02:41.095Z,14.27
2018-05-05T05:05:08.846Z,14.33
2018-05-05T05:07:36.376Z,13.96
2018-05-05T05:10:03.909Z,14.32
2018-05-05T05:12:31.612Z,14.05
2018-05-05T05:14:59.139Z,14.02
2018-05-05T05:17:26.664Z,14.07
2018-05-05T05:19:54.225Z,14.20
2018-05-05T05:22:21.748Z,14.13
2018-05-05T05:24:49.273Z,13.86
2018-05-05T05:27:16.845Z,14.32
2018-05-05T05:29:44.372Z,14.79
2018-05-05T05:32:11.905Z,14.76
2018-05-05T05:34:39.456Z,14.97
2018-05-05T05:37:06.972Z,15.13
2018-05-05T05:39:34.509Z,15.23
2018-05-05T05:42:02.224Z,15.21
2018-05-05T05:44:30.843Z,15.24
2018-05-05T05:46:58.373Z,15.57
2018-05-05T05:49:26.812Z,15.11
2018-05-05T05:51:54.332Z,15.46
2018-05-05T05:54:21.858Z,15.38
2018-05-05T05:56:49.725Z,15.27
2018-05-05T05:59:17.723Z,15.48
2018-05-05T06:01:45.282Z,15.50
2018-05-05T06:04:12.989Z,15.88
2018-05-05T06:06:42.204Z,16.06
2018-05-05T06:09:09.718Z,16.45
2018-05-05T06:11:37.670Z,16.50
2018-05-05T06:14:05.184Z,16.48
2018-05-05T06:16:32.702Z,16.79
2018-05-05T06:19:00.636Z,17.16
2018-05-05T06:21:28.147Z,17.39
2018-05-05T06:23:55.664Z,17.27
2018-05-05T06:26:23.450Z,17.72
2018-05-05T06:28:50.961Z,17.26
2018-05-05T06:31:19.937Z,17.28
2018-05-05T06:33:49.382Z,18.02
2018-05-05T06:36:18.794Z,18.51
2018-05-05T06:38:46.762Z,18.71
2018-05-05T06:41:15.625Z,18.99
2018-05-05T06:43:45.666Z,18.82
2018-05-05T06:46:13.232Z,19.34
2018-05-05T06:48:41.099Z,19.00
2018-05-05T06:51:08.760Z,19.47
2018-05-05T06:53:36.512Z,19.86
2018-05-05T06:56:04.847Z,19.97
2018-05-05T06:58:33.366Z,20.14
2018-05-05T07:01:01.250Z,19.97
2018-05-05T07:03:29.228Z,20.34
2018-05-05T07:05:57.293Z,20.39
2018-05-05T07:08:25.885Z,20.70
2018-05-05T07:10:55.323Z,20.77
2018-05-05T07:13:23.571Z,20.57
2018-05-05T07:15:52.133Z,20.11
2018-05-05T07:18:19.989Z,19.86
2018-05-05T07:20:48.380Z,20.26
2018-05-05T07:23:16.237Z,21.27
2018-05-05T07:25:44.410Z,21.84
2018-05-05T07:28:13.108Z,20.55
2018-05-05T07:30:42.027Z,20.39
2018-05-05T07:33:10.224Z,20.97
2018-05-05T07:35:37.979Z,21.10
2018-05-05T07:38:07.136Z,21.54
2018-05-05T07:40:35.429Z,21.91
2018-05-05T07:43:03.151Z,21.99
2018-05-05T07:45:30.933Z,22.24
2018-05-05T07:47:58.798Z,21.56
2018-05-05T07:50:26.369Z,21.23
2018-05-05T07:52:54.327Z,21.62
2018-05-05T07:55:24.836Z,22.12
2018-05-05T07:57:52.595Z,22.74
2018-05-05T08:00:20.498Z,22.70
2018-05-05T08:02:48.451Z,22.78
2018-05-05T08:05:16.236Z,23.64
2018-05-05T08:07:44.296Z,23.83
2018-05-05T08:10:12.543Z,24.03
2018-05-05T08:12:40.326Z,24.19
2018-05-05T08:15:09.843Z,24.71
2018-05-05T08:17:38.526Z,24.38
2018-05-05T08:20:08.548Z,24.31
2018-05-05T08:22:37.588Z,24.77
2018-05-05T08:25:06.733Z,25.27
2018-05-05T08:27:34.805Z,25.51
2018-05-05T08:30:02.878Z,25.49
2018-05-05T08:32:30.422Z,25.75
2018-05-05T08:34:58.091Z,25.61
2018-05-05T08:37:25.852Z,25.03
2018-05-05T08:39:54.525Z,25.87
2018-05-05T08:42:22.954Z,26.16
2018-05-05T08:44:51.589Z,26.79
2018-05-05T08:47:19.453Z,27.38
2018-05-05T08:49:47.777Z,27.10
2018-05-05T08:52:16.031Z,26.81
2018-05-05T08:54:43.816Z,25.85
2018-05-05T08:57:11.764Z,26.43
2018-05-05T08:59:40.467Z,26.78
2018-05-05T09:02:09.034Z,27.67
2018-05-05T09:04:36.806Z,28.19
2018-05-05T09:07:04.971Z,28.02
2018-05-05T09:09:32.719Z,28.72
2018-05-05T09:12:01.382Z,28.66
2018-05-05T09:14:29.290Z,28.98
2018-05-05T09:16:57.462Z,28.43
2018-05-05T09:19:25.430Z,29.38
2018-05-05T09:21:54.219Z,30.44
2018-05-05T09:24:22.188Z,29.24
2018-05-05T09:26:50.157Z,29.61
2018-05-05T09:29:18.025Z,29.78
2018-05-05T09:31:46.120Z,31.24
2018-05-05T09:34:14.010Z,31.61
2018-05-05T09:36:42.137Z,32.39
2018-05-05T09:39:09.972Z,33.16
2018-05-05T09:41:39.510Z,33.23
2018-05-05T09:44:07.639Z,33.03
2018-05-05T09:46:35.306Z,32.95
2018-05-05T09:49:03.002Z,33.22
2018-05-05T09:51:30.750Z,34.11
2018-05-05T09:53:58.429Z,32.65
2018-05-05T09:56:25.989Z,33.50
2018-05-05T09:58:53.546Z,33.45
2018-05-05T10:01:21.065Z,33.80
2018-05-05T10:03:48.719Z,33.82
2018-05-05T10:06:16.947Z,34.14
2018-05-05T10:08:44.842Z,34.70
2018-05-05T10:11:14.316Z,34.55
2018-05-05T10:13:43.321Z,33.64
2018-05-05T10:16:10.940Z,34.43
2018-05-05T10:18:38.836Z,35.85
2018-05-05T10:21:06.909Z,35.21
2018-05-05T10:23:35.286Z,35.26
2018-05-05T10:26:02.912Z,35.19
2018-05-05T10:28:30.817Z,35.35
2018-05-05T10:30:59.851Z,34.84
2018-05-05T10:33:27.937Z,34.75
2018-05-05T10:35:55.661Z,35.37
2018-05-05T10:38:23.180Z,34.71
2018-05-05T10:40:51.069Z,36.26
2018-05-05T10:43:18.657Z,36.64
2018-05-05T10:45:46.189Z,38.03
2018-05-05T10:48:13.707Z,38.21
2018-05-05T10:50:41.691Z,38.00
2018-05-05T10:53:09.483Z,36.51
2018-05-05T10:55:37.090Z,37.00
2018-05-05T10:58:05.111Z,37.12
2018-05-05T11:00:32.679Z,36.38
2018-05-05T11:03:00.229Z,36.69
2018-05-05T11:05:27.979Z,35.93
2018-05-05T11:07:55.514Z,36.43
2018-05-05T11:10:23.028Z,35.64
2018-05-05T11:12:50.760Z,36.77
2018-05-05T11:15:18.290Z,37.32
2018-05-05T11:17:45.867Z,37.85
2018-05-05T11:20:13.844Z,36.62
2018-05-05T11:22:41.374Z,38.11
2018-05-05T11:25:08.896Z,37.53
2018-05-05T11:27:36.832Z,38.28
2018-05-05T11:30:04.368Z,38.06
2018-05-05T11:32:31.876Z,37.80
2018-05-05T11:34:59.428Z,38.28
2018-05-05T11:37:26.948Z,38.49
2018-05-05T11:39:54.472Z,38.28
2018-05-05T11:42:22.056Z,38.76
2018-05-05T11:44:49.811Z,38.89
2018-05-05T11:47:17.341Z,39.28
2018-05-05T11:49:44.985Z,39.62
2018-05-05T11:52:12.647Z,38.97
2018-05-05T11:54:40.221Z,38.47
2018-05-05T11:57:07.932Z,38.33
2018-05-05T11:59:35.529Z,38.46
2018-05-05T12:02:03.077Z,36.69
2018-05-05T12:04:30.964Z,37.41
2018-05-05T12:06:58.490Z,36.63
2018-05-05T12:09:26.015Z,36.11
2018-05-05T12:11:53.704Z,36.60
2018-05-05T12:14:21.254Z,36.77
2018-05-05T12:16:48.772Z,37.62
2018-05-05T12:19:16.333Z,36.92
2018-05-05T12:21:43.857Z,36.67
2018-05-05T12:24:11.453Z,37.14
2018-05-05T12:26:39.212Z,38.46
2018-05-05T12:29:06.787Z,37.59
2018-05-05T12:31:34.309Z,36.67
2018-05-05T12:34:01.957Z,36.74
2018-05-05T12:36:29.494Z,36.20
2018-05-05T12:38:57.004Z,37.15
2018-05-05T12:41:24.845Z,38.15
2018-05-05T12:43:52.622Z,36.98
2018-05-05T12:46:20.148Z,36.42
2018-05-05T12:48:47.784Z,36.69
2018-05-05T12:51:15.245Z,37.11
2018-05-05T12:53:42.765Z,38.24
2018-05-05T12:56:10.607Z,38.64
2018-05-05T12:58:38.120Z,37.52
2018-05-05T13:01:05.635Z,37.36
2018-05-05T13:03:33.601Z,37.85
2018-05-05T13:06:01.132Z,38.19
2018-05-05T13:08:28.640Z,37.54
2018-05-05T13:10:56.475Z,36.56
2018-05-05T13:13:24.052Z,36.59
2018-05-05T13:15:51.569Z,35.36
2018-05-05T13:18:21.240Z,36.52
2018-05-05T13:20:48.832Z,36.95
2018-05-05T13:23:16.364Z,37.06
2018-05-05T13:25:44.079Z,37.24
2018-05-05T13:28:11.603Z,37.03
2018-05-05T13:30:39.136Z,35.58
2018-05-05T13:33:06.987Z,36.81
2018-05-05T13:35:34.525Z,35.58
2018-05-05T13:38:02.187Z,36.63
2018-05-05T13:40:30.583Z,36.20
2018-05-05T13:42:58.222Z,35.43
2018-05-05T13:45:25.739Z,35.40
2018-05-05T13:47:53.467Z,35.93
2018-05-05T13:50:20.985Z,35.31
2018-05-05T13:52:48.584Z,35.42
2018-05-05T13:55:16.331Z,35.16
2018-05-05T13:57:43.844Z,35.22
2018-05-05T14:00:11.391Z,36.61
2018-05-05T14:02:39.205Z,36.58
2018-05-05T14:05:06.724Z,36.17
2018-05-05T14:07:34.270Z,36.47
2018-05-05T14:10:02.123Z,35.62
2018-05-05T14:12:29.674Z,35.04
2018-05-05T14:14:57.253Z,35.32
2018-05-05T14:17:25.100Z,34.08
2018-05-05T14:19:52.966Z,34.16
2018-05-05T14:22:20.518Z,33.63
2018-05-05T14:24:48.286Z,33.90
2018-05-05T14:27:16.055Z,33.89
2018-05-05T14:29:43.925Z,32.77
2018-05-05T14:32:11.771Z,31.95
2018-05-05T14:34:39.330Z,31.17
2018-05-05T14:37:06.967Z,30.25
2018-05-05T14:39:34.864Z,30.24
2018-05-05T14:42:03.562Z,32.00
2018-05-05T14:44:31.093Z,33.27
2018-05-05T14:46:58.780Z,33.45
2018-05-05T14:49:26.320Z,32.90
2018-05-05T14:51:53.988Z,33.49
2018-05-05T14:54:21.869Z,33.45
2018-05-05T14:56:49.389Z,32.43
2018-05-05T14:59:16.930Z,32.98
2018-05-05T15:01:44.501Z,32.97
2018-05-05T15:06:45.794Z,32.55
2018-05-05T15:09:17.164Z,32.56
2018-05-05T15:11:44.741Z,32.82
2018-05-05T15:14:12.381Z,32.48
2018-05-05T15:16:39.924Z,32.02
2018-05-05T15:19:07.446Z,32.33
2018-05-05T15:21:35.054Z,31.76
2018-05-05T15:24:02.690Z,31.50
2018-05-05T15:26:30.207Z,31.64
2018-05-05T15:28:57.912Z,31.28
2018-05-05T15:31:25.476Z,30.72
2018-05-05T15:33:53.223Z,30.80
2018-05-05T15:36:21.024Z,30.84
2018-05-05T15:38:48.638Z,30.46
2018-05-05T15:41:16.201Z,30.13
2018-05-05T15:43:43.900Z,29.50
2018-05-05T15:46:11.437Z,29.34
2018-05-05T15:48:38.961Z,28.85
2018-05-05T15:51:06.524Z,27.98
2018-05-05T15:53:34.560Z,28.21
2018-05-05T15:56:02.220Z,27.76
2018-05-05T15:58:30.188Z,27.70
2018-05-05T16:00:57.825Z,27.36
2018-05-05T16:03:25.333Z,26.91
2018-05-05T16:05:52.903Z,27.02
2018-05-05T16:08:20.490Z,27.26
2018-05-05T16:10:48.029Z,27.07
2018-05-05T16:13:15.683Z,26.80
2018-05-05T16:15:43.231Z,26.62
2018-05-05T16:18:10.744Z,26.65
2018-05-05T16:20:38.617Z,26.78
2018-05-05T16:23:06.124Z,26.80
2018-05-05T16:25:33.645Z,26.72
2018-05-05T16:28:01.214Z,26.73
2018-05-05T16:30:28.752Z,26.62
2018-05-05T16:32:56.309Z,26.75
2018-05-05T16:35:24.104Z,26.66
2018-05-05T16:37:51.627Z,26.32
2018-05-05T16:40:19.267Z,26.57
2018-05-05T16:42:47.085Z,26.40
2018-05-05T16:45:14.602Z,26.46
2018-05-05T16:47:42.227Z,26.42
2018-05-05T16:50:09.840Z,26.22
2018-05-05T16:52:37.383Z,26.30
2018-05-05T16:55:04.891Z,26.43
2018-05-05T16:57:32.741Z,26.39
2018-05-05T17:00:00.333Z,26.54
2018-05-05T17:02:27.840Z,26.38
2018-05-05T17:04:55.605Z,26.56
2018-05-05T17:07:23.153Z,26.18
2018-05-05T17:09:50.661Z,26.14
2018-05-05T17:12:18.381Z,25.81
2018-05-05T17:14:45.898Z,26.25
2018-05-05T17:17:13.416Z,25.91
2018-05-05T17:19:41.295Z,25.96
2018-05-05T17:22:08.821Z,25.87
2018-05-05T17:24:36.330Z,26.11
2018-05-05T17:27:03.880Z,25.91
2018-05-05T17:29:31.395Z,25.98
2018-05-05T17:31:58.939Z,26.19
2018-05-05T17:34:26.748Z,26.13
2018-05-05T17:36:54.274Z,26.03
2018-05-05T17:39:21.793Z,25.97
2018-05-05T17:41:49.401Z,25.87
2018-05-05T17:44:16.983Z,25.77
2018-05-05T17:46:44.527Z,25.72
2018-05-05T17:49:12.832Z,25.59
2018-05-05T17:51:40.716Z,25.76
2018-05-05T17:54:08.268Z,25.88
2018-05-05T17:56:36.108Z,25.60
2018-05-05T17:59:03.629Z,25.43
2018-05-05T18:01:31.155Z,25.32
2018-05-05T18:03:58.721Z,25.14
2018-05-05T18:06:26.337Z,25.22
2018-05-05T18:08:54.011Z,25.12
2018-05-05T18:11:22.108Z,25.03
2018-05-05T18:13:49.787Z,25.03
2018-05-05T18:16:18.323Z,24.85
2018-05-05T18:18:46.194Z,24.62
2018-05-05T18:21:17.136Z,24.57
2018-05-05T18:23:44.724Z,24.50
2018-05-05T18:26:12.662Z,24.40
2018-05-05T18:28:40.420Z,24.29
2018-05-05T18:31:08.143Z,24.17
2018-05-05T18:33:35.785Z,24.07
2018-05-05T18:36:03.304Z,24.06
2018-05-05T18:38:30.844Z,23.94
2018-05-05T18:40:58.547Z,23.80
2018-05-05T18:43:26.403Z,23.79
2018-05-05T18:45:54.075Z,23.62
2018-05-05T18:48:21.807Z,23.42
2018-05-05T18:50:49.482Z,23.47
2018-05-05T18:53:17.280Z,23.21
2018-05-05T18:55:45.114Z,23.32
2018-05-05T18:58:12.981Z,23.29
2018-05-05T19:00:41.564Z,23.22
2018-05-05T19:03:09.842Z,23.14
2018-05-05T19:05:37.605Z,23.13
2018-05-05T19:08:05.779Z,23.06
2018-05-05T19:10:33.962Z,22.81
2018-05-05T19:13:01.616Z,22.84
2018-05-05T19:15:29.387Z,22.78
2018-05-05T19:17:57.593Z,22.68
2018-05-05T19:20:25.365Z,22.62
2018-05-05T19:22:53.496Z,22.59
2018-05-05T19:25:21.325Z,22.50
2018-05-05T19:27:49.020Z,22.49
2018-05-05T19:30:16.885Z,22.48
2018-05-05T19:32:44.952Z,22.38
2018-05-05T19:35:12.725Z,22.42
2018-05-05T19:37:40.560Z,22.20
2018-05-05T19:40:09.068Z,22.37
2018-05-05T19:42:36.933Z,22.36
2018-05-05T19:45:04.802Z,22.25
2018-05-05T19:47:32.872Z,22.08
2018-05-05T19:50:00.533Z,22.06
2018-05-05T19:52:28.196Z,21.93
2018-05-05T19:54:56.266Z,21.81
2018-05-05T19:57:24.099Z,21.89
2018-05-05T19:59:52.766Z,21.77
2018-05-05T20:02:21.712Z,21.69
2018-05-05T20:04:49.650Z,21.45
2018-05-05T20:07:17.545Z,21.53
2018-05-05T20:09:45.411Z,21.52
2018-05-05T20:12:13.484Z,21.44
2018-05-05T20:14:42.184Z,21.34
2018-05-05T20:17:10.013Z,21.32
2018-05-05T20:19:37.698Z,21.35
2018-05-05T20:22:05.565Z,21.33
2018-05-05T20:24:34.148Z,21.36
2018-05-05T20:27:01.779Z,21.29
2018-05-05T20:29:29.404Z,21.26
2018-05-05T20:31:57.552Z,21.14
2018-05-05T20:34:25.399Z,21.08
2018-05-05T20:36:53.058Z,21.01
2018-05-05T20:39:20.940Z,21.02
2018-05-05T20:41:48.456Z,21.01
2018-05-05T20:44:15.992Z,21.02
2018-05-05T20:46:44.027Z,20.96
2018-05-05T20:49:11.577Z,20.89
2018-05-05T20:51:39.155Z,20.82
2018-05-05T20:54:07.831Z,20.76
2018-05-05T20:56:35.700Z,20.71
2018-05-05T20:59:03.671Z,20.64
2018-05-05T21:01:32.145Z,20.63
2018-05-05T21:03:59.945Z,20.60
2018-05-05T21:06:27.852Z,20.53
2018-05-05T21:08:55.737Z,20.49
2018-05-05T21:11:23.520Z,20.44
2018-05-05T21:13:51.176Z,20.37
2018-05-05T21:16:19.458Z,20.27
2018-05-05T21:18:47.321Z,20.21
2018-05-05T21:21:15.389Z,20.15
2018-05-05T21:23:43.426Z,20.14
2018-05-05T21:26:11.434Z,20.13
2018-05-05T21:28:39.912Z,20.09
2018-05-05T21:31:08.173Z,20.08
2018-05-05T21:33:36.155Z,20.08
2018-05-05T21:36:03.816Z,19.97
2018-05-05T21:38:33.654Z,19.95
2018-05-05T21:41:01.422Z,19.93
2018-05-05T21:43:28.957Z,19.90
2018-05-05T21:45:56.568Z,19.86
2018-05-05T21:48:24.478Z,19.80
2018-05-05T21:50:52.011Z,19.76
2018-05-05T21:53:19.806Z,19.68
2018-05-05T21:55:47.365Z,19.66
2018-05-05T21:58:14.909Z,19.62
2018-05-05T22:00:42.686Z,19.57
2018-05-05T22:03:10.682Z,19.56
2018-05-05T22:05:38.229Z,19.52
2018-05-05T22:08:05.801Z,19.48
2018-05-05T22:10:33.504Z,19.45
2018-05-05T22:13:02.033Z,19.35
2018-05-05T22:15:30.398Z,19.35
2018-05-05T22:17:58.671Z,19.32
2018-05-05T22:20:26.210Z,19.29
2018-05-05T22:22:54.102Z,19.27
2018-05-05T22:25:21.617Z,19.18
2018-05-05T22:27:49.141Z,19.18
2018-05-05T22:30:16.705Z,19.17
2018-05-05T22:32:44.302Z,19.03
2018-05-05T22:35:12.094Z,19.02
2018-05-05T22:37:39.661Z,18.95
2018-05-05T22:40:07.397Z,18.89
2018-05-05T22:42:35.547Z,18.88
2018-05-05T22:45:03.364Z,18.68
2018-05-05T22:47:31.008Z,18.74
2018-05-05T22:49:58.589Z,18.82
2018-05-05T22:52:26.354Z,18.79
2018-05-05T22:54:53.906Z,18.74
2018-05-05T22:57:21.470Z,18.70
2018-05-05T22:59:49.812Z,18.64
2018-05-05T23:02:17.342Z,18.57
2018-05-05T23:04:44.872Z,18.58
2018-05-05T23:07:12.727Z,18.58
2018-05-05T23:09:40.292Z,18.55
2018-05-05T23:12:07.966Z,18.44
2018-05-05T23:14:35.700Z,18.40
2018-05-05T23:17:03.286Z,18.39
2018-05-05T23:19:30.818Z,18.45
2018-05-05T23:21:58.484Z,18.47
2018-05-05T23:24:26.018Z,18.46
2018-05-05T23:26:53.534Z,18.43
2018-05-05T23:29:21.593Z,18.38
2018-05-05T23:31:49.128Z,18.32
2018-05-05T23:34:16.654Z,18.34
2018-05-05T23:36:44.466Z,18.34
2018-05-05T23:39:12.872Z,18.32
2018-05-05T23:41:40.431Z,18.25
2018-05-05T23:44:08.145Z,18.19
2018-05-05T23:46:35.695Z,18.20
2018-05-05T23:49:03.490Z,18.19
2018-05-05T23:51:31.055Z,18.10
2018-05-05T23:53:58.593Z,18.14
2018-05-05T23:56:26.374Z,18.10
2018-05-05T23:58:54.196Z,18.08
